Time;durP1;ratioP1;P1;durP2;ratioP2;P2;SDS_P1;SDS_P2;PMS_P1;PMS_P2;Temp;Humidity;BMP_temperature;BMP_pressure;BME280_temperature;BME280_humidity;BME280_pressure;Samples;Min_cycle;Max_cycle;Signal;HPM_P1;HPM_P2
2023/03/16 00:00:20;;;;;;;46.10;34.20;;;;;;;-1.65;81.20;98024.48;109401;1276;22395;31
2023/03/16 00:03:02;;;;;;;42.80;33.80;;;;;;;-1.63;81.39;98027.66;107491;1285;22659;-89
2023/03/16 00:05:37;;;;;;;48.70;34.50;;;;;;;-1.65;81.29;98028.38;101965;1276;22433;31
2023/03/16 00:08:23;;;;;;;43.30;33.40;;;;;;;-1.64;81.11;98033.52;109337;1276;22393;31
2023/03/16 00:10:52;;;;;;;43.90;34.90;;;;;;;-1.66;81.18;98036.05;109534;1293;22237;-88
2023/03/16 00:13:23;;;;;;;43.50;33.40;;;;;;;-1.68;81.36;98034.01;109665;1293;22197;-89
2023/03/16 00:15:59;;;;;;;44.20;32.60;;;;;;;-1.80;81.47;98029.04;109411;1274;22377;31
2023/03/16 00:18:37;;;;;;;42.50;32.90;;;;;;;-1.84;82.25;98029.39;109393;1273;22406;31
2023/03/16 00:21:17;;;;;;;42.40;33.30;;;;;;;-1.81;82.72;98041.67;106264;1276;22712;31
2023/03/16 00:23:52;;;;;;;44.40;34.80;;;;;;;-1.87;82.68;98045.25;109291;1276;22345;31
2023/03/16 00:26:25;;;;;;;45.30;34.60;;;;;;;-1.92;82.70;98046.15;109422;1273;22405;-90
2023/03/16 00:29:00;;;;;;;42.10;34.20;;;;;;;-1.97;82.56;98047.85;102705;1276;22251;-83
2023/03/16 00:31:34;;;;;;;45.00;34.50;;;;;;;-1.98;82.25;98048.27;109465;1274;23750;31
2023/03/16 00:34:12;;;;;;;41.00;32.20;;;;;;;-1.99;82.80;98047.62;93505;1276;22653;31
2023/03/16 00:36:45;;;;;;;43.40;34.10;;;;;;;-2.01;83.61;98045.85;98355;1276;22576;-91
2023/03/16 00:39:13;;;;;;;42.10;36.00;;;;;;;-2.07;82.69;98049.74;109711;1293;21989;-93
2023/03/16 00:41:49;;;;;;;41.50;34.00;;;;;;;-2.08;82.55;98051.29;109719;1271;23061;31
2023/03/16 00:44:23;;;;;;;39.60;34.00;;;;;;;-2.09;82.38;98053.98;109431;1273;22236;31
2023/03/16 00:46:58;;;;;;;45.10;34.10;;;;;;;-2.10;82.18;98053.74;109407;1278;22821;31
2023/03/16 00:49:35;;;;;;;45.80;33.30;;;;;;;-2.11;82.79;98058.95;109312;1277;22228;31
2023/03/16 00:52:13;;;;;;;48.00;37.30;;;;;;;-2.13;82.58;98056.77;109309;1277;22433;31
2023/03/16 00:55:03;;;;;;;45.30;40.40;;;;;;;-2.12;82.30;98054.86;109286;1269;22366;31
2023/03/16 00:57:50;;;;;;;48.20;38.30;;;;;;;-2.06;82.03;98058.14;109387;1267;22387;31
2023/03/16 01:00:27;;;;;;;43.00;32.60;;;;;;;-2.03;81.69;98061.40;109325;1277;22937;31
2023/03/16 01:03:01;;;;;;;42.30;35.70;;;;;;;-2.04;81.60;98063.02;109446;1276;22256;31
2023/03/16 01:05:29;;;;;;;47.50;36.70;;;;;;;-2.08;81.60;98065.02;109841;1288;22074;-83
2023/03/16 01:08:15;;;;;;;40.80;32.20;;;;;;;-2.11;82.24;98062.57;109365;1273;22803;31
2023/03/16 01:10:44;;;;;;;42.70;34.80;;;;;;;-2.17;81.82;98065.65;109790;1292;22358;-84
2023/03/16 01:13:12;;;;;;;42.70;33.30;;;;;;;-2.23;81.84;98064.66;109861;1286;22056;-84
2023/03/16 01:15:40;;;;;;;48.60;37.30;;;;;;;-2.22;81.56;98063.85;109845;1292;22078;-83
2023/03/16 01:18:08;;;;;;;47.30;37.90;;;;;;;-2.19;81.84;98068.38;109825;1292;21995;-83
2023/03/16 01:20:35;;;;;;;43.10;37.10;;;;;;;-2.15;81.87;98071.39;109826;1292;22309;-84
2023/03/16 01:23:06;;;;;;;42.80;37.00;;;;;;;-2.15;81.84;98071.37;109832;1292;21949;-83
2023/03/16 01:25:34;;;;;;;45.60;36.90;;;;;;;-2.18;81.75;98075.08;109829;1292;21918;-82
2023/03/16 01:31:52;;;;;;;41.70;37.00;;;;;;;-2.41;81.09;98074.23;109833;1292;22036;-83
2023/03/16 01:34:38;;;;;;;66.30;59.20;;;;;;;-2.51;81.07;98076.11;109544;1277;22417;31
2023/03/16 01:37:06;;;;;;;51.30;43.10;;;;;;;-2.55;81.24;98083.30;109836;1292;21897;-83
2023/03/16 01:39:51;;;;;;;;;;;;;;;-2.57;81.01;98081.54;109843;1292;22256;-84
2023/03/16 01:42:20;;;;;;;45.60;39.00;;;;;;;-2.61;80.94;98086.59;109841;1292;21918;-83
2023/03/16 01:45:45;;;;;;;45.50;37.70;;;;;;;-2.61;81.01;98089.78;109668;1276;24165;31
2023/03/16 01:48:24;;;;;;;44.60;36.70;;;;;;;-2.66;80.93;98090.45;109573;1274;22350;31
2023/03/16 01:51:20;;;;;;;50.50;42.40;;;;;;;-2.75;80.80;98087.08;109474;1276;22446;31
2023/03/16 01:57:10;;;;;;;59.70;52.20;;;;;;;-2.88;80.96;98085.02;109464;1275;22242;31
2023/03/16 01:59:53;;;;;;;58.50;50.40;;;;;;;-2.94;80.98;98083.37;109368;1277;22552;31
2023/03/16 02:02:30;;;;;;;43.50;37.40;;;;;;;-3.00;81.06;98089.59;95391;1276;22768;31
2023/03/16 02:05:07;;;;;;;49.40;40.90;;;;;;;-3.03;81.19;98086.88;109495;1276;22410;31
2023/03/16 02:10:36;;;;;;;42.00;32.50;;;;;;;-3.05;81.06;98095.45;109359;1295;23009;-94
2023/03/16 02:13:04;;;;;;;53.60;44.50;;;;;;;-3.07;81.23;98105.98;109498;1295;22406;-92
2023/03/16 02:15:34;;;;;;;50.10;44.40;;;;;;;-3.07;81.45;98102.42;109524;1276;22247;-91
2023/03/16 02:18:04;;;;;;;54.20;48.60;;;;;;;-3.08;81.42;98104.57;109358;1295;22890;-92
2023/03/16 02:20:47;;;;;;;54.70;48.90;;;;;;;-3.07;81.60;98107.77;109169;1295;22201;-93
2023/03/16 02:23:23;;;;;;;50.80;45.40;;;;;;;-3.08;81.65;98113.38;109389;1272;22886;31
2023/03/16 02:26:01;;;;;;;60.30;50.40;;;;;;;-3.11;81.57;98112.77;109675;1270;22003;-90
2023/03/16 02:28:52;;;;;;;52.90;45.90;;;;;;;-3.08;82.00;98115.97;95266;1277;22360;-83
2023/03/16 02:31:26;;;;;;;51.10;44.30;;;;;;;-3.01;81.76;98121.54;109653;1276;21920;31
2023/03/16 02:34:02;;;;;;;50.50;43.70;;;;;;;-2.95;81.71;98122.52;109573;1277;22251;-93
2023/03/16 02:44:06;;;;;;;58.30;51.80;;;;;;;-3.07;80.89;98138.72;109407;1272;22672;-91
2023/03/16 02:46:37;;;;;;;54.50;48.30;;;;;;;-3.13;81.51;98143.42;109501;1275;21938;-89
2023/03/16 02:49:18;;;;;;;47.70;42.50;;;;;;;-3.20;81.26;98148.50;109774;1292;22998;-93
2023/03/16 02:51:53;;;;;;;52.20;46.50;;;;;;;-3.29;81.09;98153.77;109482;1273;22164;31
2023/03/16 02:54:26;;;;;;;;;;;;;;;-3.38;81.11;98157.39;106723;1276;22768;-92
2023/03/16 02:56:54;;;;;;;62.00;47.60;;;;;;;-3.45;81.35;98156.05;109558;1274;22692;-92
2023/03/16 02:59:23;;;;;;;52.10;46.40;;;;;;;-3.45;81.22;98162.38;109568;1276;22181;-88
2023/03/16 03:02:10;;;;;;;64.30;57.90;;;;;;;-3.45;81.28;98165.05;109579;1275;22416;31
2023/03/16 03:04:47;;;;;;;53.30;47.40;;;;;;;-3.52;81.40;98168.45;109361;1276;22669;31
2023/03/16 03:07:20;;;;;;;72.50;65.50;;;;;;;-3.67;82.04;98169.16;108615;1274;23780;-94
2023/03/16 03:09:58;;;;;;;52.10;46.70;;;;;;;-3.81;82.28;98175.05;109706;1293;22127;-95
2023/03/16 03:12:26;;;;;;;48.50;42.10;;;;;;;-3.94;82.78;98172.67;109792;1293;22221;-90
2023/03/16 03:14:56;;;;;;;55.70;43.20;;;;;;;-4.09;83.23;98176.30;109809;1293;22955;-89
2023/03/16 03:17:28;;;;;;;49.20;42.50;;;;;;;-4.20;83.41;98176.56;109685;1273;22203;-90
2023/03/16 03:19:59;;;;;;;51.90;44.70;;;;;;;-4.27;83.67;98183.27;109817;1292;21937;-92
2023/03/16 03:22:27;;;;;;;56.60;47.70;;;;;;;-4.33;83.66;98185.18;109760;1290;22015;-95
2023/03/16 03:24:55;;;;;;;58.80;50.20;;;;;;;-4.33;83.44;98193.42;109768;1293;23291;-91
2023/03/16 03:27:23;;;;;;;96.80;86.90;;;;;;;-4.36;83.55;98195.40;109756;1293;22241;-93
2023/03/16 03:29:52;;;;;;;67.70;60.80;;;;;;;-4.37;83.32;98196.60;109786;1293;22230;-91
2023/03/16 03:32:20;;;;;;;65.60;56.70;;;;;;;-4.36;83.47;98198.91;109768;1293;22155;-94
2023/03/16 03:34:48;;;;;;;61.80;49.50;;;;;;;-4.33;83.51;98199.78;109746;1293;23236;-92
2023/03/16 03:37:17;;;;;;;53.50;46.40;;;;;;;-4.26;83.46;98206.77;109754;1293;22210;-93
2023/03/16 03:39:45;;;;;;;53.70;46.90;;;;;;;-4.17;83.29;98215.80;109780;1293;22812;-95
2023/03/16 03:42:13;;;;;;;68.10;60.30;;;;;;;-4.08;83.32;98220.84;109755;1293;22286;-91
2023/03/16 03:44:41;;;;;;;62.10;55.60;;;;;;;-3.99;83.31;98222.11;109672;1293;23088;-90
2023/03/16 03:47:10;;;;;;;57.80;51.70;;;;;;;-3.90;83.62;98225.27;109675;1294;23103;-94
2023/03/16 03:49:44;;;;;;;56.10;50.40;;;;;;;-3.87;83.18;98228.58;109473;1270;22312;31
2023/03/16 03:52:21;;;;;;;59.90;53.60;;;;;;;-3.85;83.45;98228.55;109397;1275;22756;31
2023/03/16 03:54:50;;;;;;;62.90;56.50;;;;;;;-3.83;83.52;98227.02;109647;1293;21978;-83
2023/03/16 03:57:37;;;;;;;61.80;55.30;;;;;;;-3.86;83.16;98230.24;109442;1275;22680;31
2023/03/16 04:00:12;;;;;;;62.10;53.90;;;;;;;-3.90;83.04;98226.71;109393;1274;22372;31
2023/03/16 04:03:02;;;;;;;55.90;49.20;;;;;;;-3.93;83.32;98227.80;109480;1271;22435;31
2023/03/16 04:05:55;;;;;;;58.00;52.10;;;;;;;-4.14;83.51;98229.77;109525;1274;22339;31
2023/03/16 04:08:42;;;;;;;62.00;55.70;;;;;;;-4.27;83.37;98236.77;109504;1273;22827;31
2023/03/16 04:11:17;;;;;;;69.80;62.50;;;;;;;-4.31;83.63;98236.88;109460;1275;22633;31
2023/03/16 04:13:54;;;;;;;67.40;60.00;;;;;;;-4.31;83.64;98238.69;109436;1275;23990;31
2023/03/16 04:16:28;;;;;;;73.40;58.20;;;;;;;-4.40;83.56;98240.70;109401;1276;22286;31
2023/03/16 04:18:56;;;;;;;61.30;54.80;;;;;;;-4.49;83.55;98242.15;109543;1295;22071;-83
2023/03/16 04:21:31;;;;;;;58.20;52.00;;;;;;;-4.45;83.46;98240.23;109340;1276;24008;31
2023/03/16 04:24:04;;;;;;;60.90;53.20;;;;;;;-4.36;83.62;98244.73;109426;1275;22323;31
2023/03/16 04:26:41;;;;;;;63.60;56.40;;;;;;;-4.24;83.97;98246.04;109328;1277;23851;31
2023/03/16 04:29:19;;;;;;;63.90;57.20;;;;;;;-4.20;83.91;98252.02;109402;1276;22507;31
2023/03/16 04:31:55;;;;;;;66.30;59.30;;;;;;;-4.31;83.72;98251.99;101941;1273;22218;-83
2023/03/16 04:34:29;;;;;;;72.90;63.20;;;;;;;-4.44;83.62;98249.23;109320;1273;22405;31
2023/03/16 04:37:04;;;;;;;90.90;67.40;;;;;;;-4.56;83.97;98246.55;109779;1270;22550;31
2023/03/16 04:39:38;;;;;;;74.30;66.40;;;;;;;-4.71;84.25;98246.87;109337;1280;23566;31
2023/03/16 04:42:12;;;;;;;62.50;56.00;;;;;;;-4.79;84.24;98249.28;107459;1273;22256;-82
2023/03/16 04:44:46;;;;;;;57.30;51.20;;;;;;;-4.83;84.09;98247.73;109555;1271;22222;-84
2023/03/16 04:47:22;;;;;;;56.80;50.70;;;;;;;-4.79;84.26;98248.75;109312;1277;22254;31
2023/03/16 04:49:55;;;;;;;69.20;62.20;;;;;;;-4.84;84.41;98239.05;109459;1276;23912;31
2023/03/16 04:52:30;;;;;;;;;;;;;;;-4.82;84.59;98256.81;108476;1273;25373;31
2023/03/16 04:55:06;;;;;;;61.50;55.00;;;;;;;-4.95;85.15;98256.33;109185;1273;22816;31
2023/03/16 04:57:40;;;;;;;60.50;54.20;;;;;;;-5.04;85.47;98256.30;109387;1276;22461;31
2023/03/16 05:00:20;;;;;;;54.10;48.30;;;;;;;-5.03;85.61;98258.52;109426;1276;22848;-92
2023/03/16 05:02:59;;;;;;;49.50;44.30;;;;;;;-4.99;85.81;98261.59;109576;1294;22216;-87
2023/03/16 05:05:27;;;;;;;49.20;44.20;;;;;;;-5.02;86.26;98261.37;109299;1294;23097;-90
2023/03/16 05:07:55;;;;;;;56.70;50.80;;;;;;;-5.10;85.85;98266.71;109099;1294;22215;-89
2023/03/16 05:10:26;;;;;;;64.70;58.20;;;;;;;-5.09;85.76;98269.27;109219;1292;22319;-87
2023/03/16 05:12:55;;;;;;;63.40;57.20;;;;;;;-5.04;85.65;98273.15;109161;1294;22243;-89
2023/03/16 05:15:23;;;;;;;67.90;59.60;;;;;;;-5.04;85.53;98265.02;109341;1294;22127;-86
2023/03/16 05:18:19;;;;;;;53.90;48.10;;;;;;;-5.02;85.43;98280.08;109155;1294;22134;-86
2023/03/16 05:20:52;;;;;;;49.40;44.30;;;;;;;-5.03;85.83;98281.24;109568;1294;22208;-92
2023/03/16 05:23:21;;;;;;;58.70;52.90;;;;;;;-5.02;85.71;98282.51;109277;1294;22388;-88
2023/03/16 05:25:58;;;;;;;62.00;52.50;;;;;;;-4.86;86.06;98283.80;109317;1294;22270;-90
2023/03/16 05:28:27;;;;;;;57.80;52.10;;;;;;;-4.66;86.07;98280.73;109590;1294;22219;-91
2023/03/16 05:31:02;;;;;;;54.60;49.20;;;;;;;-4.60;85.98;98281.66;109220;1294;22270;-88
2023/03/16 05:33:36;;;;;;;60.20;54.30;;;;;;;-4.64;86.78;98287.09;109134;1294;22269;-90
2023/03/16 05:36:07;;;;;;;60.50;54.00;;;;;;;-4.61;87.58;98285.58;109455;1276;22817;-89
2023/03/16 05:38:35;;;;;;;51.90;46.60;;;;;;;-4.54;87.13;98279.63;109378;1294;23076;-92
2023/03/16 05:41:23;;;;;;;60.50;54.20;;;;;;;-4.42;86.88;98292.45;109511;1270;22166;31
2023/03/16 05:44:10;;;;;;;70.70;63.20;;;;;;;-4.20;88.05;98290.77;109311;1295;22315;-89
2023/03/16 05:47:04;;;;;;;68.10;61.10;;;;;;;-3.98;87.80;98296.41;109157;1295;21965;-90
2023/03/16 05:49:35;;;;;;;70.00;62.70;;;;;;;-3.87;87.76;98295.85;109077;1295;22200;-83
2023/03/16 05:52:06;;;;;;;67.20;60.10;;;;;;;-3.75;87.69;98294.94;108893;1295;22528;-85
2023/03/16 05:54:35;;;;;;;63.30;56.60;;;;;;;-3.60;87.42;98300.73;108986;1295;22184;-83
2023/03/16 05:57:05;;;;;;;62.70;56.10;;;;;;;-3.47;87.01;98301.55;108920;1295;22111;-83
2023/03/16 05:59:34;;;;;;;62.10;55.70;;;;;;;-3.33;87.11;98304.46;108888;1286;22146;-84
2023/03/16 06:02:03;;;;;;;64.10;57.30;;;;;;;-3.16;87.20;98304.01;108921;1295;22767;-83
2023/03/16 06:04:31;;;;;;;91.30;80.60;;;;;;;-3.02;87.27;98306.42;108947;1295;22203;-84
2023/03/16 06:06:59;;;;;;;78.60;70.10;;;;;;;-2.91;87.46;98308.90;108993;1295;22176;-83
2023/03/16 06:09:28;;;;;;;74.00;66.10;;;;;;;-2.88;87.38;98303.30;108976;1295;22926;-83
2023/03/16 06:11:56;;;;;;;68.00;60.80;;;;;;;-2.75;87.47;98310.09;108908;1295;22243;-82
2023/03/16 06:14:25;;;;;;;65.40;58.20;;;;;;;-2.63;87.34;98310.27;109122;1295;22358;-83
2023/03/16 06:16:54;;;;;;;64.30;56.50;;;;;;;-2.50;87.58;98318.67;109114;1295;22105;-83
2023/03/16 06:19:22;;;;;;;63.50;53.50;;;;;;;-2.39;87.93;98318.46;108865;1295;22262;-83
2023/03/16 06:21:54;;;;;;;64.30;57.60;;;;;;;-2.25;87.39;98314.39;108906;1295;22229;-83
2023/03/16 06:24:22;;;;;;;75.10;67.90;;;;;;;-2.11;87.44;98317.00;108958;1288;22143;-84
2023/03/16 06:26:51;;;;;;;78.60;71.30;;;;;;;-1.98;87.46;98317.34;108878;1295;22293;-84
2023/03/16 06:29:19;;;;;;;78.80;71.70;;;;;;;-1.86;87.60;98323.51;109093;1295;23080;-84
2023/03/16 06:31:50;;;;;;;76.80;68.40;;;;;;;-1.74;87.71;98320.63;108979;1295;22299;-84
2023/03/16 06:34:18;;;;;;;74.00;66.10;;;;;;;-1.60;87.57;98322.80;109099;1295;22239;-82
2023/03/16 06:36:46;;;;;;;73.10;64.60;;;;;;;-1.47;87.39;98326.50;109087;1295;22948;-82
2023/03/16 06:39:14;;;;;;;83.00;71.00;;;;;;;-1.33;87.73;98329.64;109102;1295;22800;-83
2023/03/16 06:41:46;;;;;;;77.10;67.70;;;;;;;-1.21;87.71;98332.17;108859;1295;22250;-85
2023/03/16 06:44:15;;;;;;;76.60;68.40;;;;;;;-1.08;87.52;98335.56;108889;1285;22287;-85
2023/03/16 06:46:53;;;;;;;73.50;66.50;;;;;;;-0.98;88.35;98340.17;108966;1295;22228;-84
2023/03/16 06:49:21;;;;;;;64.90;58.40;;;;;;;-0.93;88.14;98340.80;109131;1295;22288;-87
2023/03/16 06:51:50;;;;;;;57.80;52.20;;;;;;;-0.86;88.29;98344.85;108979;1295;22205;-83
2023/03/16 06:54:18;;;;;;;57.70;50.50;;;;;;;-0.83;88.95;98350.95;108933;1295;22115;-82
2023/03/16 06:56:46;;;;;;;59.10;53.30;;;;;;;-0.80;88.88;98354.46;108982;1295;22184;-83
2023/03/16 06:59:14;;;;;;;63.50;56.90;;;;;;;-0.76;88.90;98352.78;109109;1293;22295;-83
2023/03/16 07:01:43;;;;;;;63.70;57.00;;;;;;;-0.70;88.54;98354.27;109113;1283;22226;-83
2023/03/16 07:04:12;;;;;;;60.60;54.50;;;;;;;-0.63;88.90;98358.17;108963;1295;22940;-84
2023/03/16 07:06:41;;;;;;;64.00;57.30;;;;;;;-0.59;88.85;98360.91;108867;1295;22264;-83
2023/03/16 07:09:12;;;;;;;55.70;48.40;;;;;;;-0.51;88.81;98362.68;109094;1290;22971;-82
2023/03/16 07:11:41;;;;;;;54.90;49.40;;;;;;;-0.43;89.01;98362.34;108954;1295;22176;-83
2023/03/16 07:14:12;;;;;;;59.30;53.40;;;;;;;-0.37;89.57;98362.81;108943;1295;22204;-83
2023/03/16 07:16:41;;;;;;;60.30;54.50;;;;;;;-0.37;89.51;98365.17;109076;1295;22232;-82
2023/03/16 07:19:10;;;;;;;57.60;52.20;;;;;;;-0.38;89.30;98365.06;108950;1295;22303;-82
2023/03/16 07:21:40;;;;;;;50.50;45.40;;;;;;;-0.32;89.38;98372.51;109114;1295;22227;-82
2023/03/16 07:24:16;;;;;;;45.70;41.10;;;;;;;-0.25;89.36;98369.72;109091;1295;22305;-83
2023/03/16 07:26:45;;;;;;;46.70;42.20;;;;;;;-0.20;89.07;98375.10;108859;1293;22216;-81
2023/03/16 07:29:20;;;;;;;49.00;44.50;;;;;;;-0.09;89.17;98377.37;108997;1295;22239;-82
2023/03/16 07:31:50;;;;;;;45.60;41.30;;;;;;;-0.06;88.99;98378.88;108863;1283;22346;-82
2023/03/16 07:34:20;;;;;;;46.70;42.10;;;;;;;0.03;89.25;98379.77;108975;1293;23305;-82
2023/03/16 07:36:52;;;;;;;49.10;44.20;;;;;;;0.10;89.24;98380.23;108861;1295;22260;-82
2023/03/16 07:39:23;;;;;;;50.30;45.60;;;;;;;0.14;89.03;98382.64;108924;1295;22265;-82
2023/03/16 07:41:54;;;;;;;55.90;50.30;;;;;;;0.20;89.05;98383.96;108910;1293;22177;-82
2023/03/16 07:44:37;;;;;;;47.80;43.00;;;;;;;0.31;88.51;98385.11;108823;1296;22292;-81
2023/03/16 07:47:05;;;;;;;44.10;39.90;;;;;;;0.36;88.57;98385.27;108826;1296;22258;-83
2023/03/16 07:49:34;;;;;;;49.30;44.10;;;;;;;0.45;88.50;98391.73;108938;1290;22197;-83
2023/03/16 07:52:02;;;;;;;44.80;40.30;;;;;;;0.55;88.29;98391.63;108615;1295;22172;-84
2023/03/16 07:54:36;;;;;;;50.50;45.60;;;;;;;0.59;87.82;98391.13;108911;1295;22134;-83
2023/03/16 07:57:05;;;;;;;51.00;45.80;;;;;;;0.64;87.93;98392.21;108948;1296;23434;-82
2023/03/16 07:59:38;;;;;;;45.10;40.50;;;;;;;0.73;87.47;98396.02;108741;1297;23117;-84
2023/03/16 08:02:12;;;;;;;45.80;41.00;;;;;;;0.80;87.00;98396.48;108734;1290;22116;-85
2023/03/16 08:04:43;;;;;;;49.40;44.60;;;;;;;0.90;87.32;98395.52;108823;1295;22294;-83
2023/03/16 08:07:14;;;;;;;54.20;48.60;;;;;;;1.04;87.00;98399.17;108733;1295;23010;-87
2023/03/16 08:09:51;;;;;;;51.20;46.00;;;;;;;1.07;86.31;98398.77;109007;1295;22993;-87
2023/03/16 08:12:24;;;;;;;56.20;50.40;;;;;;;1.08;86.29;98400.31;109014;1295;22297;-85
2023/03/16 08:14:53;;;;;;;51.70;46.40;;;;;;;1.12;86.36;98401.48;108876;1296;22198;-85
2023/03/16 08:17:31;;;;;;;52.10;46.90;;;;;;;1.17;86.48;98398.64;108979;1289;22231;-85
2023/03/16 08:20:00;;;;;;;50.20;42.50;;;;;;;1.26;85.63;98395.73;109040;1296;22197;-85
2023/03/16 08:22:29;;;;;;;46.00;41.20;;;;;;;1.31;85.75;98397.90;108865;1296;22170;-86
2023/03/16 08:24:57;;;;;;;44.20;39.30;;;;;;;1.42;84.95;98398.12;108879;1296;22243;-86
2023/03/16 08:27:28;;;;;;;44.80;40.00;;;;;;;1.48;85.04;98398.07;108807;1292;22204;-87
2023/03/16 08:30:03;;;;;;;47.50;42.70;;;;;;;1.55;84.74;98399.88;108985;1289;22239;-85
2023/03/16 08:32:33;;;;;;;51.90;46.70;;;;;;;1.65;84.94;98400.80;108973;1296;22109;-85
2023/03/16 08:35:02;;;;;;;49.40;44.30;;;;;;;1.73;84.39;98399.98;108832;1279;22147;-85
2023/03/16 08:37:32;;;;;;;49.60;44.70;;;;;;;1.80;84.97;98397.98;109248;1296;22184;-84
2023/03/16 08:40:09;;;;;;;48.10;43.00;;;;;;;1.90;83.51;98402.40;109201;1295;22201;-85
2023/03/16 08:42:37;;;;;;;40.60;36.20;;;;;;;1.84;83.02;98388.88;108945;1296;22207;-85
2023/03/16 08:45:08;;;;;;;39.80;35.80;;;;;;;1.99;83.76;98400.14;108825;1292;22229;-85
2023/03/16 08:47:41;;;;;;;45.50;39.90;;;;;;;2.18;83.11;98401.98;108816;1296;22915;-85
2023/03/16 08:50:12;;;;;;;45.10;40.60;;;;;;;2.28;82.77;98403.29;108679;1296;22323;-83
2023/03/16 08:52:40;;;;;;;42.90;38.60;;;;;;;2.36;82.73;98402.08;108721;1291;22233;-85
2023/03/16 08:55:09;;;;;;;48.20;43.20;;;;;;;2.49;81.58;98402.77;108930;1296;22318;-86
2023/03/16 08:57:38;;;;;;;37.50;33.80;;;;;;;2.56;81.10;98408.45;108824;1292;22192;-85
2023/03/16 09:00:11;;;;;;;46.40;41.60;;;;;;;2.60;79.66;98410.38;108925;1296;22940;-85
2023/03/16 09:02:41;;;;;;;48.70;42.90;;;;;;;2.66;79.84;98409.36;108925;1296;22226;-84
2023/03/16 09:05:13;;;;;;;49.30;44.60;;;;;;;2.69;79.93;98406.75;108917;1296;22249;-83
2023/03/16 09:07:43;;;;;;;47.60;42.50;;;;;;;2.76;80.15;98410.60;108840;1296;22275;-83
2023/03/16 09:10:14;;;;;;;67.50;49.20;;;;;;;2.84;78.97;98410.61;108962;1296;22215;-83
2023/03/16 09:12:43;;;;;;;53.00;38.20;;;;;;;2.99;79.50;98414.75;108829;1294;22197;-83
2023/03/16 09:15:15;;;;;;;40.40;36.20;;;;;;;3.21;79.26;98415.11;108698;1297;22203;-83
2023/03/16 09:17:46;;;;;;;38.80;34.70;;;;;;;3.47;79.18;98408.70;108720;1296;22238;-84
2023/03/16 09:20:17;;;;;;;38.20;31.90;;;;;;;3.75;79.62;98406.83;108851;1291;22243;-86
2023/03/16 09:23:05;;;;;;;36.30;32.50;;;;;;;4.10;79.13;98404.18;108921;1292;22849;-87
2023/03/16 09:25:33;;;;;;;38.20;33.90;;;;;;;4.26;76.55;98403.88;108949;1296;22146;-86
2023/03/16 09:28:03;;;;;;;29.10;26.10;;;;;;;4.29;75.64;98407.02;108985;1296;22982;-87
2023/03/16 09:30:41;;;;;;;28.70;25.80;;;;;;;4.17;73.72;98416.60;108882;1296;22256;-86
2023/03/16 09:33:11;;;;;;;27.60;24.40;;;;;;;4.01;72.92;98415.77;108937;1289;22930;-84
2023/03/16 09:35:39;;;;;;;28.90;26.00;;;;;;;3.84;71.47;98423.55;108939;1296;22247;-85
2023/03/16 09:38:07;;;;;;;29.70;26.60;;;;;;;3.64;71.41;98423.33;108916;1289;22240;-84
2023/03/16 09:40:36;;;;;;;30.40;26.60;;;;;;;3.52;72.17;98424.29;108900;1296;22216;-84
2023/03/16 09:43:43;;;;;;;34.10;30.10;;;;;;;3.42;70.88;98426.62;108924;1296;22294;-85
2023/03/16 09:46:15;;;;;;;43.20;35.00;;;;;;;3.31;71.74;98429.45;108867;1289;22232;-83
2023/03/16 09:48:44;;;;;;;34.80;31.40;;;;;;;3.29;71.44;98434.73;108918;1296;22195;-84
2023/03/16 09:51:21;;;;;;;39.30;35.10;;;;;;;3.40;70.95;98433.14;108957;1296;22395;-84
2023/03/16 09:53:57;;;;;;;33.70;30.20;;;;;;;3.64;71.73;98421.24;108946;1296;22280;-84
2023/03/16 09:56:32;;;;;;;36.20;32.20;;;;;;;3.95;72.31;98422.34;108983;1296;22227;-83
2023/03/16 09:59:12;;;;;;;25.00;21.60;;;;;;;4.25;70.77;98427.42;108925;1289;22210;-84
2023/03/16 10:01:50;;;;;;;23.20;20.40;;;;;;;4.27;69.45;98434.36;108934;1293;22242;-84
2023/03/16 10:04:32;;;;;;;23.20;20.80;;;;;;;4.13;68.43;98444.39;108924;1295;22199;-84
2023/03/16 10:07:19;;;;;;;31.60;27.20;;;;;;;3.94;67.13;98446.22;108946;1295;22285;-84
2023/03/16 10:09:58;;;;;;;34.10;30.00;;;;;;;3.61;67.44;98449.34;109148;1297;22102;-85
2023/03/16 10:12:36;;;;;;;33.40;28.40;;;;;;;3.47;68.01;98443.55;109294;1289;22129;-85
2023/03/16 10:15:13;;;;;;;30.90;26.20;;;;;;;3.37;68.25;98448.70;109122;1295;22236;-86
2023/03/16 10:18:06;;;;;;;29.40;26.10;;;;;;;3.38;68.19;98446.20;108925;1289;22235;-85
2023/03/16 10:20:35;;;;;;;31.50;28.20;;;;;;;3.59;69.08;98445.50;108852;1295;22245;-87
2023/03/16 10:23:16;;;;;;;28.30;25.20;;;;;;;3.82;68.85;98447.52;108879;1295;22316;-87
2023/03/16 10:25:47;;;;;;;27.80;21.40;;;;;;;4.09;67.23;98446.29;108703;1295;199497;-87
2023/03/16 10:28:25;;;;;;;27.40;22.70;;;;;;;4.24;67.28;98444.13;108864;1295;22946;-86
2023/03/16 10:30:55;;;;;;;31.20;27.40;;;;;;;4.50;67.28;98439.59;108958;1295;22911;-87
2023/03/16 10:33:32;;;;;;;28.20;20.90;;;;;;;4.53;66.74;98455.33;108926;1295;22883;-87
2023/03/16 10:36:23;;;;;;;20.90;16.70;;;;;;;4.38;65.48;98455.36;108901;1295;22941;-86
2023/03/16 10:38:58;;;;;;;19.10;14.40;;;;;;;4.24;64.41;98452.73;108954;1295;22259;-86
2023/03/16 10:41:30;;;;;;;20.30;14.10;;;;;;;4.11;62.49;98466.32;108931;1295;23110;-86
2023/03/16 10:44:07;;;;;;;20.10;13.20;;;;;;;3.88;62.18;98456.41;108839;1295;22180;-87
2023/03/16 10:46:40;;;;;;;19.80;14.20;;;;;;;3.79;62.49;98460.41;108946;1295;23010;-86
2023/03/16 10:49:28;;;;;;;19.70;13.70;;;;;;;3.81;63.24;98458.03;109094;1295;22304;-87
2023/03/16 10:51:59;;;;;;;22.40;14.90;;;;;;;3.84;61.74;98459.39;109184;1295;22981;-85
2023/03/16 10:54:38;;;;;;;17.10;14.70;;;;;;;3.81;62.22;98463.61;108882;1295;22272;-87
2023/03/16 10:57:24;;;;;;;22.60;14.50;;;;;;;3.81;61.97;98459.27;109137;1295;22319;-87
2023/03/16 10:59:55;;;;;;;18.70;13.30;;;;;;;3.68;61.42;98463.70;108864;1295;22223;-87
2023/03/16 11:02:31;;;;;;;17.30;14.70;;;;;;;3.59;62.11;98462.27;108957;1285;22133;-86
2023/03/16 11:05:16;;;;;;;16.50;13.60;;;;;;;3.58;61.64;98465.33;109377;1293;22137;-85
2023/03/16 11:07:55;;;;;;;15.30;12.20;;;;;;;3.60;61.54;98464.73;109551;1295;22225;-86
2023/03/16 11:10:35;;;;;;;17.80;13.60;;;;;;;3.84;61.51;98455.38;108929;1295;22161;-86
2023/03/16 11:13:21;;;;;;;18.70;13.70;;;;;;;4.28;63.27;98447.91;108954;1295;22192;-87
2023/03/16 11:15:57;;;;;;;14.50;11.90;;;;;;;4.67;63.72;98448.41;108954;1295;22961;-86
2023/03/16 11:18:49;;;;;;;20.30;14.40;;;;;;;4.79;61.88;98454.55;108923;1295;22927;-86
2023/03/16 11:21:33;;;;;;;18.90;12.80;;;;;;;4.77;60.23;98454.84;108948;1295;22250;-84
2023/03/16 11:24:04;;;;;;;16.80;12.30;;;;;;;4.57;57.94;98463.34;108903;1288;22227;-83
2023/03/16 11:26:38;;;;;;;15.50;12.30;;;;;;;4.41;57.01;98459.48;108854;1295;22792;-84
2023/03/16 11:29:22;;;;;;;15.40;12.60;;;;;;;4.24;56.96;98460.41;108817;1295;22245;-85
2023/03/16 11:31:59;;;;;;;13.90;11.00;;;;;;;4.24;58.96;98459.55;108933;1295;22989;-84
2023/03/16 11:34:29;;;;;;;14.70;11.20;;;;;;;4.30;57.61;98463.05;108912;1296;22947;-85
2023/03/16 11:37:31;;;;;;;16.90;11.00;;;;;;;4.33;56.72;98462.34;108957;1296;22257;-85
2023/03/16 11:40:14;;;;;;;17.20;11.90;;;;;;;4.18;56.78;98465.10;108912;1295;22246;-85
2023/03/16 11:43:01;;;;;;;12.60;11.00;;;;;;;4.14;57.92;98461.36;108843;1296;22608;-86
2023/03/16 11:45:42;;;;;;;16.10;14.20;;;;;;;4.24;57.25;98458.89;108884;1296;22180;-86
2023/03/16 11:48:47;;;;;;;20.80;17.40;;;;;;;4.53;57.27;98451.65;108949;1296;22936;-86
2023/03/16 11:51:27;;;;;;;18.60;15.60;;;;;;;4.87;56.62;98448.82;108436;1300;22217;-86
2023/03/16 11:54:16;;;;;;;16.80;13.30;;;;;;;4.92;56.53;98441.94;108434;1301;22930;-86
2023/03/16 11:56:51;;;;;;;13.80;8.60;;;;;;;4.98;56.60;98438.28;108275;1301;22919;-89
2023/03/16 11:59:46;;;;;;;11.00;8.20;;;;;;;5.02;55.54;98435.34;108444;1301;22230;-84
2023/03/16 12:02:44;;;;;;;10.90;8.20;;;;;;;5.03;55.13;98437.81;108427;1301;22236;-85
2023/03/16 12:05:22;;;;;;;9.90;6.80;;;;;;;4.98;53.63;98434.53;108461;1297;22385;-86